Time;durP1;ratioP1;P1;durP2;ratioP2;P2;SDS_P1;SDS_P2;PMS_P1;PMS_P2;Temp;Humidity;BMP_temperature;BMP_pressure;BME280_temperature;BME280_humidity;BME280_pressure;Samples;Min_cycle;Max_cycle;Signal;HPM_P1;HPM_P2
2022/06/02 00:00:02;;;;;;;17.38;12.25;;;;;;;14.70;79.31;92700.38;5051542;28;20145;-75
2022/06/02 00:02:49;;;;;;;17.52;12.13;;;;;;;14.67;79.33;92682.50;5071845;28;20060;-75
2022/06/02 00:05:29;;;;;;;19.77;12.93;;;;;;;14.69;78.86;92690.13;5055113;28;20032;-75
2022/06/02 00:08:36;;;;;;;19.55;12.63;;;;;;;14.70;79.89;92687.19;5051513;28;20032;-75
2022/06/02 00:11:29;;;;;;;16.15;11.98;;;;;;;14.76;79.87;92691.22;5068991;28;20394;-75
2022/06/02 00:13:59;;;;;;;20.70;12.05;;;;;;;14.76;79.69;92687.81;5070138;28;20059;-75
2022/06/02 00:16:37;;;;;;;18.23;11.82;;;;;;;14.73;79.88;92686.56;5070186;28;20028;-75
2022/06/02 00:19:12;;;;;;;19.48;12.00;;;;;;;14.70;79.82;92694.28;5053604;28;20401;-75
2022/06/02 00:21:55;;;;;;;17.33;12.05;;;;;;;14.69;79.62;92701.44;5070219;28;20029;-75
2022/06/02 00:24:40;;;;;;;15.73;12.15;;;;;;;14.69;79.58;92696.16;5069816;28;20070;-75
2022/06/02 00:27:21;;;;;;;17.00;11.80;;;;;;;14.69;79.92;92693.53;5069929;28;20090;-75
2022/06/02 00:29:53;;;;;;;16.23;11.25;;;;;;;14.67;80.01;92693.06;5070110;28;20040;-75
2022/06/02 00:32:31;;;;;;;19.52;12.60;;;;;;;14.66;79.91;92691.50;5053930;28;20491;-75
2022/06/02 00:34:56;;;;;;;17.55;12.02;;;;;;;14.65;80.27;92692.59;5069878;28;20039;-75
2022/06/02 00:37:54;;;;;;;15.32;11.48;;;;;;;14.62;80.52;92693.19;5070915;28;20024;-75
2022/06/02 00:40:22;;;;;;;15.75;12.52;;;;;;;14.60;80.34;92687.47;5050984;28;20098;-75
2022/06/02 00:42:53;;;;;;;21.13;12.27;;;;;;;14.58;80.38;92684.34;5052593;28;20040;-75
2022/06/02 00:45:20;;;;;;;19.98;12.77;;;;;;;14.57;80.73;92670.41;5069763;28;20401;-75
2022/06/02 00:47:59;;;;;;;17.10;12.82;;;;;;;14.55;80.48;92663.91;5071018;28;20459;-75
2022/06/02 00:50:48;;;;;;;22.50;13.65;;;;;;;14.57;80.22;92657.25;5070145;28;20032;-75
2022/06/02 00:53:28;;;;;;;19.50;12.88;;;;;;;14.56;80.00;92649.63;5070730;28;20044;-75
2022/06/02 00:59:23;;;;;;;15.82;11.38;;;;;;;14.49;80.35;92647.41;5070474;28;20033;-75
2022/06/02 01:01:49;;;;;;;15.73;11.77;;;;;;;14.46;80.52;92642.00;5070841;28;20047;-75
2022/06/02 01:04:17;;;;;;;17.50;11.70;;;;;;;14.41;80.86;92645.56;5052708;28;20495;-75
2022/06/02 01:06:52;;;;;;;19.30;12.02;;;;;;;14.36;81.20;92643.84;5069789;28;20036;-75
2022/06/02 01:09:29;;;;;;;20.02;13.05;;;;;;;14.32;81.39;92645.53;5069975;28;20043;-75
2022/06/02 01:12:14;;;;;;;18.55;11.88;;;;;;;14.29;81.40;92659.28;5069458;28;20164;-75
2022/06/02 01:15:18;;;;;;;19.67;12.50;;;;;;;14.24;81.38;92664.69;5069387;28;20039;-75
2022/06/02 01:18:10;;;;;;;18.75;12.55;;;;;;;14.18;81.65;92658.00;5070629;28;20498;-75
2022/06/02 01:20:58;;;;;;;20.92;12.18;;;;;;;14.15;81.48;92669.13;5070062;28;20032;-75
2022/06/02 01:23:52;;;;;;;24.48;12.98;;;;;;;14.12;80.81;92672.38;5070425;28;20433;-75
2022/06/02 01:26:30;;;;;;;21.85;13.15;;;;;;;14.07;82.19;92683.81;5070568;28;20082;-75
2022/06/02 01:29:11;;;;;;;20.50;13.32;;;;;;;14.01;82.55;92685.03;5069299;28;20032;-75
2022/06/02 01:31:55;;;;;;;24.88;12.95;;;;;;;14.03;82.17;92690.75;5070045;28;20031;-75
2022/06/02 01:34:37;;;;;;;21.52;12.15;;;;;;;14.02;82.27;92685.78;5070338;28;20032;-75
2022/06/02 01:37:26;;;;;;;;;;;;;;;13.99;82.65;92687.19;5072471;28;20508;-75
2022/06/02 01:39:58;;;;;;;21.83;14.30;;;;;;;14.02;81.92;92697.09;5074251;28;20378;-75
2022/06/02 01:42:41;;;;;;;21.42;15.05;;;;;;;14.07;82.07;92701.44;5072093;28;20701;-75
2022/06/02 01:45:25;;;;;;;23.42;11.77;;;;;;;14.14;81.90;92689.44;5072935;28;20028;-75
2022/06/02 01:48:33;;;;;;;18.38;11.50;;;;;;;14.37;80.83;92689.38;5073157;28;20032;-75
2022/06/02 01:51:11;;;;;;;19.45;11.57;;;;;;;14.29;81.86;92693.50;5073339;28;20039;-75
2022/06/02 01:53:55;;;;;;;19.33;13.18;;;;;;;14.21;81.98;92707.44;5072621;28;20052;-75
2022/06/02 01:56:29;;;;;;;15.73;11.68;;;;;;;14.17;82.20;92711.75;5074076;28;20044;-75
2022/06/02 01:59:24;;;;;;;15.60;11.32;;;;;;;14.16;81.98;92707.53;5073026;28;20142;-75
2022/06/02 02:02:00;;;;;;;16.05;11.60;;;;;;;14.13;81.97;92708.16;5056382;28;20494;-75
2022/06/02 02:04:53;;;;;;;17.83;12.02;;;;;;;14.13;82.03;92702.88;5071582;28;20068;-75
2022/06/02 02:07:27;;;;;;;19.83;11.60;;;;;;;14.14;82.01;92699.97;5053906;28;20419;-75
2022/06/02 02:10:17;;;;;;;15.88;10.80;;;;;;;14.13;82.18;92706.28;5052821;28;20048;-75
2022/06/02 02:13:11;;;;;;;14.85;10.93;;;;;;;14.16;82.52;92718.06;5068053;28;20047;-75
2022/06/02 02:15:56;;;;;;;20.45;13.80;;;;;;;14.23;82.20;92718.44;5093236;28;20405;-75
2022/06/02 02:18:52;;;;;;;19.50;12.75;;;;;;;14.28;82.51;92731.47;5094857;28;20059;-75
2022/06/02 02:21:22;;;;;;;17.80;12.63;;;;;;;14.31;82.75;92733.47;5094045;28;20583;-74
2022/06/02 02:24:24;;;;;;;20.52;14.43;;;;;;;14.34;82.99;92734.72;5081717;28;20093;-75
2022/06/02 02:27:25;;;;;;;20.85;13.95;;;;;;;14.42;83.04;92735.88;5073744;28;20398;-75
2022/06/02 02:30:02;;;;;;;20.77;14.88;;;;;;;14.47;82.54;92738.34;5073602;28;20036;-75
2022/06/02 02:32:59;;;;;;;27.08;15.00;;;;;;;14.52;81.93;92727.69;5073399;28;20090;-75
2022/06/02 02:35:56;;;;;;;19.88;14.45;;;;;;;14.71;81.40;92728.25;5070739;28;20037;-75
2022/06/02 02:38:44;;;;;;;16.75;12.50;;;;;;;14.84;81.23;92725.78;5072110;28;20044;-75
2022/06/02 02:41:21;;;;;;;19.42;12.65;;;;;;;14.74;81.29;92730.25;5073513;28;20166;-75
2022/06/02 02:44:08;;;;;;;19.33;12.02;;;;;;;14.63;82.02;92730.84;5071764;28;20115;-75
2022/06/02 02:46:42;;;;;;;18.27;11.73;;;;;;;14.55;82.14;92721.84;5051952;28;20037;-75
2022/06/02 02:49:13;;;;;;;19.25;12.07;;;;;;;14.52;82.32;92710.03;5052115;28;20076;-75
2022/06/02 02:51:43;;;;;;;19.13;12.43;;;;;;;14.48;82.48;92716.22;5053115;28;20469;-75
2022/06/02 02:54:21;;;;;;;19.50;12.45;;;;;;;14.44;82.37;92707.38;5052958;28;20041;-75
2022/06/02 02:57:16;;;;;;;16.35;11.68;;;;;;;14.41;82.38;92702.69;5071510;28;20032;-75
2022/06/02 02:59:53;;;;;;;17.10;11.65;;;;;;;14.40;82.45;92695.88;5072977;28;20040;-75
2022/06/02 03:02:32;;;;;;;15.32;10.63;;;;;;;14.42;81.48;92691.09;5073087;28;20075;-75
2022/06/02 03:05:13;;;;;;;16.45;10.68;;;;;;;14.49;81.23;92688.78;5061344;28;20033;-75
2022/06/02 03:07:39;;;;;;;17.92;11.07;;;;;;;14.47;81.87;92675.16;5051612;28;20051;-75
2022/06/02 03:10:17;;;;;;;13.35;9.23;;;;;;;14.46;80.84;92674.38;5052117;28;20033;-75
2022/06/02 03:13:04;;;;;;;14.00;8.55;;;;;;;14.51;79.02;92676.88;5052897;28;20390;-75
2022/06/02 03:15:43;;;;;;;11.75;6.55;;;;;;;14.58;77.57;92664.03;5064124;28;20059;-75
2022/06/02 03:18:31;;;;;;;12.13;6.00;;;;;;;14.80;75.08;92664.28;5073082;28;20051;-75
2022/06/02 03:21:32;;;;;;;9.40;5.70;;;;;;;14.88;74.46;92652.94;5072482;28;20036;-75
2022/06/02 03:24:35;;;;;;;10.10;5.95;;;;;;;14.99;73.72;92652.38;5071360;28;20049;-75
2022/06/02 03:27:00;;;;;;;;;;;;;;;15.06;72.88;92659.78;5073123;28;20040;-76
2022/06/02 03:29:51;;;;;;;8.48;5.47;;;;;;;15.10;72.66;92670.50;5071689;28;19995;-75
2022/06/02 03:32:47;;;;;;;11.18;6.95;;;;;;;15.15;72.34;92681.69;5071090;28;20033;-75
2022/06/02 03:35:43;;;;;;;10.48;7.05;;;;;;;15.18;72.40;92688.19;5072088;28;20098;-75
2022/06/02 03:38:21;;;;;;;9.23;6.93;;;;;;;15.20;72.69;92697.34;5072330;28;20500;-75
2022/06/02 03:41:09;;;;;;;12.65;6.15;;;;;;;15.20;72.83;92702.63;5071461;28;20031;-75
2022/06/02 03:43:49;;;;;;;10.63;7.07;;;;;;;15.14;73.59;92693.31;5054360;28;20516;-75
2022/06/02 03:46:54;;;;;;;14.48;7.10;;;;;;;15.13;73.23;92691.75;5071301;28;20042;-75
2022/06/02 03:49:29;;;;;;;11.52;6.18;;;;;;;15.14;73.13;92688.03;5072882;28;20115;-75
2022/06/02 03:52:17;;;;;;;11.52;7.35;;;;;;;15.13;74.82;92690.97;5070926;28;20428;-75
2022/06/02 03:55:28;;;;;;;12.20;8.10;;;;;;;15.17;75.55;92697.19;5071847;28;20045;-75
2022/06/02 03:58:19;;;;;;;10.93;7.95;;;;;;;15.01;75.82;92704.75;5059195;28;20418;-75
2022/06/02 04:00:49;;;;;;;11.48;8.45;;;;;;;14.95;75.92;92712.03;5069915;28;20530;-75
2022/06/02 04:03:22;;;;;;;14.13;9.13;;;;;;;14.88;77.14;92706.47;5072360;28;20236;-75
2022/06/02 04:06:06;;;;;;;11.68;8.32;;;;;;;14.88;77.21;92705.66;5067900;28;20035;-75
2022/06/02 04:08:55;;;;;;;16.25;9.98;;;;;;;14.86;77.31;92702.56;5071377;28;20040;-75
2022/06/02 04:14:42;;;;;;;16.30;11.48;;;;;;;14.85;77.62;92690.47;5071425;28;20039;-75
2022/06/02 04:17:40;;;;;;;14.88;9.77;;;;;;;14.85;79.09;92691.25;5067822;28;20441;-75
2022/06/02 04:20:47;;;;;;;15.82;9.95;;;;;;;14.87;78.38;92696.22;5051605;28;20041;-75
2022/06/02 04:23:25;;;;;;;14.02;9.43;;;;;;;14.84;78.55;92689.69;5038454;28;20459;-75
2022/06/02 04:26:18;;;;;;;13.85;9.27;;;;;;;14.84;78.95;92699.44;5050158;28;20094;-75
2022/06/02 04:29:00;;;;;;;14.90;9.10;;;;;;;14.83;78.62;92692.63;5062611;28;20494;-75
2022/06/02 04:31:54;;;;;;;13.23;8.85;;;;;;;14.84;78.75;92688.91;5056633;28;20438;-75
2022/06/02 04:34:44;;;;;;;13.98;9.60;;;;;;;14.85;79.61;92690.47;5058509;28;20021;-75
2022/06/02 04:37:16;;;;;;;19.30;9.52;;;;;;;14.89;79.95;92696.69;5064612;28;20460;-75
2022/06/02 04:40:04;;;;;;;12.30;8.85;;;;;;;14.90;79.31;92700.84;5063287;28;20029;-76
2022/06/02 04:42:46;;;;;;;16.17;8.90;;;;;;;14.88;79.45;92701.19;5063448;28;20040;-76
2022/06/02 04:45:37;;;;;;;10.90;7.78;;;;;;;14.91;79.37;92705.06;5077430;28;20112;-76
2022/06/02 04:48:21;;;;;;;13.23;8.05;;;;;;;14.97;79.75;92703.81;5063707;28;20037;-76
2022/06/02 04:51:00;;;;;;;13.70;8.48;;;;;;;15.03;79.59;92701.81;5065897;28;20425;-77
2022/06/02 04:53:41;;;;;;;12.05;8.10;;;;;;;15.09;78.87;92696.09;5060488;28;20083;-76
2022/06/02 04:56:28;;;;;;;13.65;8.00;;;;;;;15.15;78.59;92692.22;5071964;28;20047;-76
2022/06/02 04:59:16;;;;;;;11.43;7.38;;;;;;;15.21;78.90;92690.22;5071580;28;20115;-77
2022/06/02 05:01:46;;;;;;;11.95;7.95;;;;;;;15.27;78.87;92688.97;5076057;28;20032;-76
2022/06/02 05:04:20;;;;;;;14.63;8.40;;;;;;;15.32;78.82;92688.81;5087001;28;20067;-77
2022/06/02 05:07:02;;;;;;;10.98;8.00;;;;;;;15.41;78.37;92702.00;5076819;28;20036;-76
2022/06/02 05:09:44;;;;;;;11.93;7.07;;;;;;;15.68;77.38;92706.19;5062765;28;20036;-76
2022/06/02 05:12:38;;;;;;;12.90;7.35;;;;;;;15.62;77.79;92705.56;5057244;28;20035;-77
2022/06/02 05:15:37;;;;;;;12.43;8.45;;;;;;;15.73;77.27;92713.19;5064470;28;20064;-76
2022/06/02 05:18:35;;;;;;;17.75;8.77;;;;;;;15.83;77.64;92712.91;5072612;28;20039;-79
2022/06/02 05:21:00;;;;;;;15.75;9.55;;;;;;;15.89;77.32;92711.63;5074083;28;20471;-77
2022/06/02 05:23:44;;;;;;;13.30;8.90;;;;;;;15.92;77.25;92721.56;5067679;28;20154;-76
2022/06/02 05:26:56;;;;;;;14.43;9.00;;;;;;;15.96;76.76;92721.72;5067795;28;20107;-76
2022/06/02 05:29:50;;;;;;;19.92;9.75;;;;;;;16.07;76.50;92716.88;5071268;28;20162;-77
2022/06/02 05:32:37;;;;;;;13.50;9.40;;;;;;;16.11;76.12;92715.94;5070089;28;20039;-79
2022/06/02 05:35:52;;;;;;;16.42;9.85;;;;;;;16.19;75.96;92714.38;5069720;28;20560;-76
2022/06/02 05:38:39;;;;;;;15.50;10.55;;;;;;;16.36;75.48;92719.59;5041686;28;20376;-76
2022/06/02 05:41:07;;;;;;;21.42;10.60;;;;;;;16.55;75.37;92726.38;5061212;28;20474;-76
2022/06/02 05:43:49;;;;;;;16.70;10.02;;;;;;;16.76;74.52;92726.44;5048744;28;20036;-76
2022/06/02 05:46:37;;;;;;;21.13;10.93;;;;;;;16.89;73.87;92732.63;5049177;28;20383;-76
2022/06/02 05:49:25;;;;;;;16.52;11.00;;;;;;;17.05;73.56;92736.28;5050878;28;20466;-76
2022/06/02 05:52:04;;;;;;;18.02;11.23;;;;;;;17.12;72.93;92736.56;5048630;28;20438;-76
2022/06/02 05:55:04;;;;;;;17.00;10.98;;;;;;;17.54;71.37;92736.59;5049888;28;20514;-76
2022/06/02 05:57:34;;;;;;;19.98;10.90;;;;;;;18.43;68.84;92732.88;5032428;28;20041;-76
2022/06/02 06:00:35;;;;;;;18.58;10.52;;;;;;;19.06;66.12;92740.56;5048943;28;20041;-77
2022/06/02 06:03:13;;;;;;;19.13;11.35;;;;;;;20.05;63.11;92739.28;5049830;28;20037;-76
2022/06/02 06:05:38;;;;;;;20.52;10.68;;;;;;;20.73;59.91;92740.28;5050507;28;20045;-76
2022/06/02 06:08:14;;;;;;;25.70;11.82;;;;;;;21.27;58.27;92739.63;5050166;28;20112;-77
2022/06/02 06:10:58;;;;;;;17.42;10.60;;;;;;;22.07;56.85;92747.41;5048635;28;20073;-77
2022/06/02 06:13:24;;;;;;;18.08;10.85;;;;;;;22.56;54.35;92744.94;5050001;28;20033;-77
2022/06/02 06:16:32;;;;;;;19.75;11.27;;;;;;;22.94;51.94;92753.94;5049973;28;20453;-77
2022/06/02 06:19:33;;;;;;;18.52;11.95;;;;;;;23.30;50.86;92751.84;5027295;28;20145;-77
2022/06/02 06:22:24;;;;;;;21.77;11.15;;;;;;;22.90;51.12;92757.66;5049876;28;20044;-77
2022/06/02 06:25:26;;;;;;;20.05;10.93;;;;;;;22.52;56.85;92765.44;5052155;28;20133;-77
2022/06/02 06:28:12;;;;;;;27.75;11.05;;;;;;;21.66;60.51;92769.06;5053610;28;20029;-77
2022/06/02 06:31:00;;;;;;;16.40;9.88;;;;;;;21.48;60.63;92768.66;5053769;28;20047;-76
2022/06/02 06:33:37;;;;;;;18.73;9.25;;;;;;;21.32;61.29;92774.00;5052225;28;20045;-76
2022/06/02 06:36:11;;;;;;;23.75;11.07;;;;;;;20.68;63.84;92769.78;5053290;28;20041;-76
2022/06/02 06:39:08;;;;;;;16.30;11.05;;;;;;;20.38;64.97;92776.22;5052318;28;20044;-76
2022/06/02 06:41:51;;;;;;;24.42;11.57;;;;;;;20.23;64.53;92784.16;5053435;28;20074;-76
2022/06/02 06:44:25;;;;;;;16.65;10.45;;;;;;;20.23;64.74;92790.25;5052210;28;20491;-76
2022/06/02 06:47:06;;;;;;;16.80;10.07;;;;;;;19.85;66.29;92799.44;5052089;28;20071;-76
2022/06/02 06:49:36;;;;;;;18.83;10.20;;;;;;;19.56;68.57;92795.91;5053439;28;20137;-76
2022/06/02 06:52:17;;;;;;;14.32;9.57;;;;;;;19.48;68.89;92794.19;5051896;28;20514;-76
2022/06/02 06:54:49;;;;;;;17.10;10.38;;;;;;;19.24;70.90;92799.50;5064954;28;20418;-76
2022/06/02 06:57:30;;;;;;;14.65;9.85;;;;;;;19.22;71.29;92807.00;5073883;28;20071;-76
2022/06/02 07:00:04;;;;;;;16.42;9.73;;;;;;;19.45;70.98;92799.38;5071660;28;20032;-76
2022/06/02 07:02:50;;;;;;;13.40;9.85;;;;;;;19.70;70.56;92808.09;5073116;28;20428;-76
2022/06/02 07:05:29;;;;;;;15.18;9.90;;;;;;;19.84;67.88;92805.13;5073154;28;20135;-76
2022/06/02 07:08:03;;;;;;;19.65;10.07;;;;;;;19.87;68.69;92815.06;5071685;28;20032;-76
2022/06/02 07:10:32;;;;;;;17.35;10.52;;;;;;;19.59;68.42;92809.63;5073376;28;20040;-76
2022/06/02 07:13:17;;;;;;;15.73;9.75;;;;;;;19.11;71.44;92806.66;5071659;28;20086;-76
2022/06/02 07:15:58;;;;;;;13.25;10.02;;;;;;;18.93;71.85;92806.88;5072954;28;20040;-76
2022/06/02 07:18:50;;;;;;;16.60;9.90;;;;;;;18.95;71.14;92809.19;5072932;28;20040;-76
2022/06/02 07:21:16;;;;;;;19.50;10.15;;;;;;;18.89;72.42;92813.97;5059540;28;20060;-76
2022/06/02 07:23:56;;;;;;;16.90;9.98;;;;;;;19.03;68.88;92813.63;5051377;28;20093;-76
2022/06/02 07:26:34;;;;;;;17.98;10.30;;;;;;;18.91;69.74;92803.00;5051498;28;20068;-76
2022/06/02 07:29:20;;;;;;;12.95;9.38;;;;;;;19.30;69.74;92814.09;5051282;28;20459;-76
2022/06/02 07:31:54;;;;;;;19.08;10.57;;;;;;;19.55;68.47;92814.84;5052486;28;20102;-76
2022/06/02 07:34:32;;;;;;;19.20;9.52;;;;;;;19.83;68.59;92811.50;5050427;28;20034;-76
2022/06/02 07:37:09;;;;;;;17.13;10.00;;;;;;;19.80;66.39;92820.16;5052264;28;20032;-76
2022/06/02 07:39:52;;;;;;;16.08;10.18;;;;;;;19.59;67.01;92815.75;5034664;28;20494;-76
2022/06/02 07:43:14;;;;;;;16.45;9.50;;;;;;;19.23;69.16;92812.00;5052431;28;20067;-76
2022/06/02 07:46:12;;;;;;;16.63;9.45;;;;;;;18.85;70.93;92812.28;4993873;28;20105;-76
2022/06/02 07:48:53;;;;;;;14.00;9.30;;;;;;;19.07;71.52;92816.38;4993499;28;20044;-76
2022/06/02 07:51:34;;;;;;;22.80;9.90;;;;;;;19.23;70.83;92817.31;5043304;28;20087;-76
2022/06/02 07:54:25;;;;;;;15.23;9.57;;;;;;;19.34;70.65;92814.97;5051618;28;20491;-76
2022/06/02 07:56:54;;;;;;;17.02;9.35;;;;;;;19.39;67.91;92816.66;5049638;28;20126;-76
2022/06/02 07:59:37;;;;;;;16.88;9.50;;;;;;;19.20;71.36;92815.28;5052126;28;20037;-76
2022/06/02 08:02:21;;;;;;;;;;;;;;;19.40;71.14;92818.94;5051091;28;20072;-76
2022/06/02 08:04:53;;;;;;;14.07;10.02;;;;;;;19.44;69.87;92813.75;5050647;28;20370;-76
2022/06/02 08:07:27;;;;;;;18.65;8.90;;;;;;;19.26;67.86;92807.91;5050585;28;20040;-76
2022/06/02 08:10:16;;;;;;;15.68;10.48;;;;;;;19.20;68.73;92809.22;5051604;28;20479;-76
2022/06/02 08:13:03;;;;;;;20.75;9.75;;;;;;;19.16;70.98;92813.63;5051712;28;20041;-76
2022/06/02 08:15:29;;;;;;;20.27;10.00;;;;;;;19.22;68.81;92807.78;5050288;28;20037;-76
2022/06/02 08:18:03;;;;;;;14.48;9.25;;;;;;;19.19;67.71;92811.09;5051299;28;20083;-76
2022/06/02 08:20:36;;;;;;;15.82;8.70;;;;;;;19.33;68.12;92808.88;5051637;28;20090;-76
2022/06/02 08:23:51;;;;;;;15.13;9.35;;;;;;;19.46;69.71;92807.00;5051304;28;20082;-76
2022/06/02 08:26:21;;;;;;;12.63;9.02;;;;;;;19.53;71.77;92814.41;5022153;28;20071;-76
2022/06/02 08:29:17;;;;;;;16.00;8.88;;;;;;;20.09;69.29;92816.44;5051400;28;20029;-76
2022/06/02 08:32:02;;;;;;;12.32;7.53;;;;;;;20.24;66.07;92833.53;5051464;28;20522;-76
2022/06/02 08:34:53;;;;;;;12.43;6.93;;;;;;;20.01;66.15;92836.72;5051223;28;20025;-76
2022/06/02 08:37:35;;;;;;;15.27;7.63;;;;;;;19.53;69.92;92835.66;5051748;28;20474;-76
2022/06/02 08:40:24;;;;;;;13.77;7.82;;;;;;;19.33;69.50;92838.09;5049775;28;20452;-76
2022/06/02 08:43:14;;;;;;;12.90;7.45;;;;;;;19.42;68.78;92842.50;5050123;28;20549;-76
2022/06/02 08:46:07;;;;;;;12.07;6.80;;;;;;;19.41;66.25;92846.25;5051081;28;20029;-76
2022/06/02 08:48:55;;;;;;;10.57;7.32;;;;;;;19.53;66.83;92862.97;5049980;28;20048;-76
2022/06/02 08:52:06;;;;;;;14.18;7.15;;;;;;;19.70;67.59;92869.97;5049715;28;20029;-76
2022/06/02 08:54:57;;;;;;;11.85;7.25;;;;;;;19.91;67.62;92871.72;5042578;28;20052;-76
2022/06/02 08:58:01;;;;;;;12.47;8.77;;;;;;;20.16;71.08;92877.75;5048824;28;20056;-76
2022/06/02 09:00:42;;;;;;;13.10;8.75;;;;;;;20.27;70.95;92886.03;5050968;28;20029;-76
2022/06/02 09:03:44;;;;;;;15.48;8.82;;;;;;;20.41;71.03;92891.00;5049176;28;20037;-76
2022/06/02 09:06:42;;;;;;;17.08;9.10;;;;;;;20.56;69.32;92892.94;5050770;28;20037;-76
2022/06/02 09:09:47;;;;;;;12.70;8.50;;;;;;;20.65;67.33;92893.59;5049622;28;20426;-76
2022/06/02 09:12:29;;;;;;;16.02;8.35;;;;;;;20.74;65.35;92893.44;5050577;28;20036;-76
2022/06/02 09:15:31;;;;;;;16.25;8.55;;;;;;;20.89;66.29;92900.69;5050545;28;20056;-76
2022/06/02 09:18:12;;;;;;;13.05;7.90;;;;;;;20.89;62.65;92890.03;5049225;28;20040;-76
2022/06/02 09:20:59;;;;;;;14.25;8.20;;;;;;;20.89;62.83;92871.41;5049509;28;20160;-76
2022/06/02 09:23:51;;;;;;;17.42;9.40;;;;;;;20.59;71.11;92866.44;5049252;28;20040;-76
2022/06/02 09:26:46;;;;;;;18.50;9.38;;;;;;;20.15;71.12;92850.41;5048841;28;20506;-76
2022/06/02 09:29:20;;;;;;;17.13;10.40;;;;;;;19.64;73.68;92842.06;5032551;28;20025;-76
2022/06/02 09:32:08;;;;;;;15.55;10.57;;;;;;;19.49;74.02;92837.41;5050536;28;20510;-76
2022/06/02 09:35:01;;;;;;;15.27;9.48;;;;;;;19.52;73.77;92826.13;5050380;28;20487;-76
2022/06/02 09:37:34;;;;;;;;;;;;;;;19.39;73.53;92816.66;5051015;28;20052;-76
2022/06/02 09:40:41;;;;;;;22.35;10.98;;;;;;;19.68;72.63;92824.34;5050495;28;19999;-76
2022/06/02 09:43:36;;;;;;;19.15;10.88;;;;;;;19.81;71.07;92821.69;5031754;28;20041;-76
2022/06/02 09:46:34;;;;;;;16.92;10.45;;;;;;;20.17;72.21;92818.16;5050182;28;20466;-76
2022/06/02 09:49:21;;;;;;;16.52;9.60;;;;;;;20.26;70.34;92818.81;5049022;28;20033;-76
2022/06/02 09:52:29;;;;;;;20.02;10.18;;;;;;;20.38;69.71;92823.31;5050222;28;20466;-76
2022/06/02 09:55:04;;;;;;;20.98;11.13;;;;;;;20.52;68.78;92812.28;5050108;28;20037;-76
2022/06/02 09:57:57;;;;;;;17.33;9.40;;;;;;;20.76;66.59;92812.19;5032791;28;20426;-76
2022/06/02 10:00:35;;;;;;;16.35;10.02;;;;;;;21.00;63.68;92810.47;5036194;28;20095;-76
2022/06/02 10:03:16;;;;;;;15.00;9.57;;;;;;;21.21;64.48;92803.03;5052955;28;20241;-76
2022/06/02 10:05:49;;;;;;;20.95;10.30;;;;;;;21.30;63.27;92796.72;5054446;28;20025;-76
2022/06/02 10:08:43;;;;;;;16.33;8.80;;;;;;;21.41;62.07;92798.56;5052704;28;20028;-76
2022/06/02 10:11:22;;;;;;;21.05;10.27;;;;;;;21.54;62.77;92795.78;5052214;28;20063;-76
2022/06/02 10:14:12;;;;;;;15.00;9.43;;;;;;;21.68;57.48;92790.00;5053829;28;20486;-76
2022/06/02 10:17:04;;;;;;;15.18;10.70;;;;;;;21.95;60.89;92796.28;5036064;28;20071;-76
2022/06/02 10:19:39;;;;;;;13.82;9.13;;;;;;;22.29;59.52;92791.28;5053847;28;20056;-76
2022/06/02 10:22:21;;;;;;;18.20;8.05;;;;;;;22.27;61.91;92788.97;5052397;28;20052;-77
2022/06/02 10:25:19;;;;;;;14.48;8.00;;;;;;;22.15;56.96;92786.41;5053614;28;20036;-76
2022/06/02 10:28:17;;;;;;;20.77;9.68;;;;;;;21.88;57.76;92785.47;5052579;28;20033;-76
2022/06/02 10:30:51;;;;;;;16.67;9.57;;;;;;;21.95;59.81;92798.94;5053584;28;20441;-76
2022/06/02 10:33:44;;;;;;;16.08;6.60;;;;;;;22.09;52.80;92801.13;5052890;28;20037;-76
2022/06/02 10:36:31;;;;;;;13.75;9.13;;;;;;;22.16;56.36;92799.38;5052055;28;20037;-76
2022/06/02 10:39:15;;;;;;;14.07;9.30;;;;;;;22.24;54.87;92793.09;5053435;28;20453;-76
2022/06/02 10:41:57;;;;;;;18.52;8.80;;;;;;;22.34;54.81;92796.34;5052219;28;20036;-76
2022/06/02 10:44:59;;;;;;;9.93;6.90;;;;;;;22.23;50.93;92794.22;5053198;28;20044;-76
2022/06/02 10:47:55;;;;;;;13.00;6.90;;;;;;;22.43;50.09;92796.88;5051754;28;20155;-75
2022/06/02 10:50:30;;;;;;;14.75;7.90;;;;;;;22.60;50.23;92790.31;5053090;28;20028;-74
2022/06/02 10:53:15;;;;;;;11.93;7.78;;;;;;;23.01;53.64;92788.00;5053193;28;20445;-75
2022/06/02 10:55:59;;;;;;;13.50;7.80;;;;;;;23.15;49.95;92785.59;5039225;28;20379;-75
2022/06/02 10:59:01;;;;;;;15.48;7.07;;;;;;;23.15;48.92;92784.81;5072230;28;20343;-74
2022/06/02 11:01:50;;;;;;;11.77;7.80;;;;;;;22.96;49.58;92797.06;5072979;28;20033;-74
2022/06/02 11:04:27;;;;;;;12.57;6.20;;;;;;;23.14;50.84;92794.72;5072652;28;20119;-74
2022/06/02 11:07:30;;;;;;;9.45;6.80;;;;;;;23.32;51.75;92794.22;5071787;28;20047;-74
2022/06/02 11:10:11;;;;;;;10.63;7.20;;;;;;;23.65;48.54;92801.59;5071570;28;20043;-75
2022/06/02 11:13:04;;;;;;;13.60;6.95;;;;;;;23.80;49.82;92792.69;5073090;28;20440;-75
2022/06/02 11:15:48;;;;;;;14.77;6.32;;;;;;;24.00;49.49;92797.88;5073090;28;20044;-75
2022/06/02 11:18:16;;;;;;;12.50;7.00;;;;;;;23.96;50.24;92797.06;5072987;28;20111;-74
2022/06/02 11:21:01;;;;;;;13.02;6.68;;;;;;;23.77;50.37;92801.41;5071942;28;20028;-75
2022/06/02 11:23:45;;;;;;;12.93;6.97;;;;;;;23.63;50.70;92801.94;5070996;28;20032;-75
2022/06/02 11:26:29;;;;;;;11.10;6.55;;;;;;;23.69;49.40;92797.09;5071134;28;20036;-75
2022/06/02 11:29:54;;;;;;;9.88;6.28;;;;;;;23.73;48.86;92808.56;5072829;28;20039;-75
2022/06/02 11:32:34;;;;;;;10.05;6.47;;;;;;;23.79;48.54;92809.06;5033069;28;20040;-75
2022/06/02 11:35:09;;;;;;;10.73;6.35;;;;;;;24.06;50.18;92809.81;5049907;28;20087;-75
2022/06/02 11:37:46;;;;;;;10.27;6.40;;;;;;;24.16;48.37;92803.84;5063589;28;20056;-75
2022/06/02 11:40:36;;;;;;;9.88;6.10;;;;;;;23.94;49.55;92815.41;5072166;28;20029;-75
2022/06/02 11:43:24;;;;;;;10.80;6.18;;;;;;;23.72;48.87;92815.06;5054649;28;20082;-75
2022/06/02 11:46:27;;;;;;;13.43;6.80;;;;;;;23.69;49.54;92821.13;5071017;28;20062;-75
2022/06/02 11:49:18;;;;;;;12.30;6.75;;;;;;;23.56;49.99;92825.91;5070989;28;20119;-75
2022/06/02 11:52:00;;;;;;;10.77;7.05;;;;;;;23.49;49.04;92826.56;5071007;28;20531;-75
2022/06/02 11:54:44;;;;;;;10.37;6.43;;;;;;;23.64;51.56;92829.44;5070725;28;20052;-75
2022/06/02 11:57:25;;;;;;;8.27;5.88;;;;;;;23.83;50.83;92816.00;5072038;28;20033;-75
2022/06/02 12:00:21;;;;;;;8.20;6.30;;;;;;;23.96;48.91;92813.09;5071964;28;20541;-75
2022/06/02 12:03:05;;;;;;;14.88;5.97;;;;;;;24.05;49.56;92808.28;5071741;28;20047;-75
2022/06/02 12:06:08;;;;;;;13.27;6.75;;;;;;;24.41;48.12;92816.72;5071597;28;20037;-75
2022/06/02 12:09:00;;;;;;;11.02;6.68;;;;;;;24.44;48.33;92816.00;5071730;28;20383;-75
2022/06/02 12:11:48;;;;;;;10.10;7.35;;;;;;;24.87;46.32;92819.16;5062889;28;20414;-75
2022/06/02 12:14:51;;;;;;;13.38;7.10;;;;;;;24.88;45.78;92824.16;5071665;28;20047;-75
2022/06/02 12:17:39;;;;;;;14.00;8.10;;;;;;;24.95;46.90;92812.75;5053609;28;20502;-75
2022/06/02 12:20:33;;;;;;;9.55;6.80;;;;;;;24.93;46.85;92807.75;5071315;28;20486;-75
2022/06/02 12:23:35;;;;;;;10.07;7.15;;;;;;;25.05;47.25;92812.06;5070068;28;20032;-75
2022/06/02 12:26:06;;;;;;;8.93;6.57;;;;;;;25.07;47.56;92814.38;5067237;28;20141;-75
2022/06/02 12:29:03;;;;;;;10.02;6.97;;;;;;;25.36;48.92;92812.75;5069951;28;20486;-75
2022/06/02 12:31:35;;;;;;;12.32;7.05;;;;;;;25.37;48.17;92805.47;5069994;28;20040;-75
2022/06/02 12:34:03;;;;;;;12.50;6.15;;;;;;;25.32;49.11;92802.00;5070120;28;20028;-75
2022/06/02 12:36:50;;;;;;;11.30;6.57;;;;;;;24.86;49.75;92801.59;5069668;28;20047;-75
2022/06/02 12:39:38;;;;;;;13.77;6.20;;;;;;;24.68;50.17;92794.13;5071180;28;20041;-75
2022/06/02 12:42:27;;;;;;;9.65;7.15;;;;;;;24.45;49.53;92796.13;5064237;28;20052;-75
2022/06/02 12:45:40;;;;;;;10.25;7.07;;;;;;;24.40;52.03;92789.19;5071083;28;20113;-75
2022/06/02 12:48:24;;;;;;;11.70;7.28;;;;;;;24.44;52.08;92791.94;5015368;28;20029;-75
2022/06/02 12:51:02;;;;;;;9.73;6.55;;;;;;;24.70;51.54;92794.53;5031953;28;20116;-75
2022/06/02 12:53:51;;;;;;;11.30;6.97;;;;;;;24.65;52.59;92797.53;5059802;28;20392;-75